sensor_id;sensor_type;location;lat;lon;timestamp;P1;durP1;ratioP1;P2;durP2;ratioP2
842;SDS011;407;48.884;9.126;2023-06-24T00:00:30;11.60;;;4.30;;
842;SDS011;407;48.884;9.126;2023-06-24T00:02:56;12.80;;;4.50;;
842;SDS011;407;48.884;9.126;2023-06-24T00:05:23;10.32;;;4.38;;
842;SDS011;407;48.884;9.126;2023-06-24T00:07:48;10.33;;;3.80;;
842;SDS011;407;48.884;9.126;2023-06-24T00:10:14;10.03;;;3.70;;
842;SDS011;407;48.884;9.126;2023-06-24T00:12:40;8.80;;;3.90;;
842;SDS011;407;48.884;9.126;2023-06-24T00:15:06;9.55;;;3.90;;
842;SDS011;407;48.884;9.126;2023-06-24T00:17:34;11.68;;;3.92;;
842;SDS011;407;48.884;9.126;2023-06-24T00:19:59;10.30;;;4.30;;
842;SDS011;407;48.884;9.126;2023-06-24T00:22:25;10.20;;;4.10;;
842;SDS011;407;48.884;9.126;2023-06-24T00:24:51;9.13;;;4.10;;
842;SDS011;407;48.884;9.126;2023-06-24T00:27:17;12.10;;;4.03;;
842;SDS011;407;48.884;9.126;2023-06-24T00:29:42;10.27;;;4.80;;
842;SDS011;407;48.884;9.126;2023-06-24T00:32:08;10.30;;;4.60;;
842;SDS011;407;48.884;9.126;2023-06-24T00:34:34;9.87;;;4.37;;
842;SDS011;407;48.884;9.126;2023-06-24T00:36:59;10.40;;;3.97;;
842;SDS011;407;48.884;9.126;2023-06-24T00:39:25;11.55;;;4.50;;
842;SDS011;407;48.884;9.126;2023-06-24T00:41:50;9.98;;;4.30;;
842;SDS011;407;48.884;9.126;2023-06-24T00:44:16;11.20;;;4.63;;
842;SDS011;407;48.884;9.126;2023-06-24T00:46:42;11.63;;;4.57;;
842;SDS011;407;48.884;9.126;2023-06-24T00:49:07;8.90;;;4.10;;
842;SDS011;407;48.884;9.126;2023-06-24T00:51:33;10.57;;;4.60;;
842;SDS011;407;48.884;9.126;2023-06-24T00:54:01;10.55;;;4.50;;
842;SDS011;407;48.884;9.126;2023-06-24T00:56:35;11.40;;;5.10;;
842;SDS011;407;48.884;9.126;2023-06-24T00:59:07;10.15;;;4.50;;
842;SDS011;407;48.884;9.126;2023-06-24T01:01:35;11.85;;;5.32;;
842;SDS011;407;48.884;9.126;2023-06-24T01:04:01;9.73;;;4.60;;
842;SDS011;407;48.884;9.126;2023-06-24T01:06:29;11.98;;;5.65;;
842;SDS011;407;48.884;9.126;2023-06-24T01:08:58;11.00;;;5.32;;
842;SDS011;407;48.884;9.126;2023-06-24T01:11:25;13.23;;;5.80;;
842;SDS011;407;48.884;9.126;2023-06-24T01:13:51;12.15;;;5.40;;
842;SDS011;407;48.884;9.126;2023-06-24T01:19:16;13.13;;;6.65;;
842;SDS011;407;48.884;9.126;2023-06-24T01:22:06;12.35;;;6.25;;
842;SDS011;407;48.884;9.126;2023-06-24T01:25:00;10.97;;;5.60;;
842;SDS011;407;48.884;9.126;2023-06-24T01:30:35;12.23;;;6.07;;
842;SDS011;407;48.884;9.126;2023-06-24T01:33:20;12.25;;;6.05;;
842;SDS011;407;48.884;9.126;2023-06-24T01:35:50;10.60;;;5.68;;
842;SDS011;407;48.884;9.126;2023-06-24T01:38:28;11.00;;;5.40;;
842;SDS011;407;48.884;9.126;2023-06-24T01:41:01;13.57;;;6.30;;
842;SDS011;407;48.884;9.126;2023-06-24T01:43:29;10.03;;;5.13;;
842;SDS011;407;48.884;9.126;2023-06-24T01:45:56;15.63;;;6.07;;
842;SDS011;407;48.884;9.126;2023-06-24T01:48:25;13.00;;;5.82;;
842;SDS011;407;48.884;9.126;2023-06-24T01:51:04;11.93;;;5.80;;
842;SDS011;407;48.884;9.126;2023-06-24T01:53:32;11.32;;;4.95;;
842;SDS011;407;48.884;9.126;2023-06-24T01:56:02;12.23;;;5.00;;
842;SDS011;407;48.884;9.126;2023-06-24T01:58:28;11.50;;;5.25;;
842;SDS011;407;48.884;9.126;2023-06-24T02:00:56;10.50;;;4.80;;
842;SDS011;407;48.884;9.126;2023-06-24T02:03:22;10.97;;;5.13;;
842;SDS011;407;48.884;9.126;2023-06-24T02:05:50;11.35;;;5.22;;
842;SDS011;407;48.884;9.126;2023-06-24T02:08:18;10.03;;;4.70;;
842;SDS011;407;48.884;9.126;2023-06-24T02:10:46;11.15;;;5.40;;
842;SDS011;407;48.884;9.126;2023-06-24T02:13:13;10.45;;;4.60;;
842;SDS011;407;48.884;9.126;2023-06-24T02:15:41;9.93;;;5.00;;
842;SDS011;407;48.884;9.126;2023-06-24T02:24:44;11.30;;;5.07;;
842;SDS011;407;48.884;9.126;2023-06-24T02:27:11;11.15;;;4.80;;
842;SDS011;407;48.884;9.126;2023-06-24T02:29:37;9.60;;;4.40;;
842;SDS011;407;48.884;9.126;2023-06-24T02:32:05;10.37;;;4.80;;
842;SDS011;407;48.884;9.126;2023-06-24T02:34:31;11.57;;;5.32;;
842;SDS011;407;48.884;9.126;2023-06-24T02:36:57;12.90;;;5.55;;
842;SDS011;407;48.884;9.126;2023-06-24T02:39:23;9.80;;;4.37;;
842;SDS011;407;48.884;9.126;2023-06-24T02:41:48;10.90;;;5.20;;
842;SDS011;407;48.884;9.126;2023-06-24T02:44:14;11.55;;;5.40;;
842;SDS011;407;48.884;9.126;2023-06-24T02:46:41;13.65;;;5.68;;
842;SDS011;407;48.884;9.126;2023-06-24T02:49:08;11.73;;;5.07;;
842;SDS011;407;48.884;9.126;2023-06-24T02:51:38;9.85;;;4.30;;
842;SDS011;407;48.884;9.126;2023-06-24T02:54:04;12.70;;;4.78;;
842;SDS011;407;48.884;9.126;2023-06-24T02:56:30;10.18;;;4.93;;
842;SDS011;407;48.884;9.126;2023-06-24T02:58:57;12.65;;;5.65;;
842;SDS011;407;48.884;9.126;2023-06-24T03:01:23;10.70;;;4.67;;
842;SDS011;407;48.884;9.126;2023-06-24T03:03:54;12.70;;;5.03;;
842;SDS011;407;48.884;9.126;2023-06-24T03:06:20;11.37;;;5.10;;
842;SDS011;407;48.884;9.126;2023-06-24T03:08:47;13.02;;;5.65;;
842;SDS011;407;48.884;9.126;2023-06-24T03:11:13;13.27;;;5.53;;
842;SDS011;407;48.884;9.126;2023-06-24T03:13:39;11.40;;;4.95;;
842;SDS011;407;48.884;9.126;2023-06-24T03:16:05;11.10;;;5.50;;
842;SDS011;407;48.884;9.126;2023-06-24T03:18:36;12.60;;;5.43;;
842;SDS011;407;48.884;9.126;2023-06-24T03:21:06;12.77;;;5.40;;
842;SDS011;407;48.884;9.126;2023-06-24T03:23:31;11.90;;;5.23;;
842;SDS011;407;48.884;9.126;2023-06-24T03:25:57;11.40;;;5.15;;
842;SDS011;407;48.884;9.126;2023-06-24T03:28:22;12.23;;;5.20;;
842;SDS011;407;48.884;9.126;2023-06-24T03:30:48;12.60;;;5.70;;
842;SDS011;407;48.884;9.126;2023-06-24T03:33:13;10.67;;;5.27;;
842;SDS011;407;48.884;9.126;2023-06-24T03:35:41;11.27;;;5.10;;
842;SDS011;407;48.884;9.126;2023-06-24T03:38:07;11.10;;;5.43;;
842;SDS011;407;48.884;9.126;2023-06-24T03:40:33;11.05;;;4.93;;
842;SDS011;407;48.884;9.126;2023-06-24T03:42:58;11.65;;;4.90;;
842;SDS011;407;48.884;9.126;2023-06-24T03:45:24;11.50;;;5.40;;
842;SDS011;407;48.884;9.126;2023-06-24T03:47:50;11.97;;;5.77;;
842;SDS011;407;48.884;9.126;2023-06-24T03:50:15;12.38;;;5.65;;
842;SDS011;407;48.884;9.126;2023-06-24T03:52:41;11.85;;;5.82;;
842;SDS011;407;48.884;9.126;2023-06-24T03:55:06;12.23;;;5.70;;
842;SDS011;407;48.884;9.126;2023-06-24T03:57:32;12.60;;;6.10;;
842;SDS011;407;48.884;9.126;2023-06-24T03:59:58;10.32;;;5.00;;
842;SDS011;407;48.884;9.126;2023-06-24T04:02:23;11.53;;;5.60;;
842;SDS011;407;48.884;9.126;2023-06-24T04:04:49;11.80;;;5.20;;
842;SDS011;407;48.884;9.126;2023-06-24T04:07:16;11.82;;;5.85;;
842;SDS011;407;48.884;9.126;2023-06-24T04:09:51;11.38;;;5.10;;
842;SDS011;407;48.884;9.126;2023-06-24T04:12:19;14.88;;;5.47;;
842;SDS011;407;48.884;9.126;2023-06-24T04:14:45;12.40;;;5.17;;
842;SDS011;407;48.884;9.126;2023-06-24T04:17:10;10.97;;;5.40;;
842;SDS011;407;48.884;9.126;2023-06-24T04:19:37;14.43;;;5.30;;
842;SDS011;407;48.884;9.126;2023-06-24T04:22:04;10.55;;;4.90;;
842;SDS011;407;48.884;9.126;2023-06-24T04:24:29;9.70;;;4.73;;
842;SDS011;407;48.884;9.126;2023-06-24T04:26:55;10.60;;;5.07;;
842;SDS011;407;48.884;9.126;2023-06-24T04:29:20;11.48;;;5.70;;
842;SDS011;407;48.884;9.126;2023-06-24T04:31:46;11.55;;;5.65;;
842;SDS011;407;48.884;9.126;2023-06-24T04:34:12;14.33;;;5.47;;
842;SDS011;407;48.884;9.126;2023-06-24T04:36:37;11.23;;;5.10;;
842;SDS011;407;48.884;9.126;2023-06-24T04:39:03;12.15;;;5.55;;
842;SDS011;407;48.884;9.126;2023-06-24T04:41:29;12.73;;;5.50;;
842;SDS011;407;48.884;9.126;2023-06-24T04:43:56;11.57;;;5.35;;
842;SDS011;407;48.884;9.126;2023-06-24T04:46:22;9.97;;;4.90;;
842;SDS011;407;48.884;9.126;2023-06-24T04:48:47;11.17;;;5.47;;
842;SDS011;407;48.884;9.126;2023-06-24T04:51:13;11.07;;;5.00;;
842;SDS011;407;48.884;9.126;2023-06-24T04:53:39;13.30;;;5.60;;
842;SDS011;407;48.884;9.126;2023-06-24T04:56:04;11.93;;;5.03;;
842;SDS011;407;48.884;9.126;2023-06-24T04:58:30;10.23;;;5.22;;
842;SDS011;407;48.884;9.126;2023-06-24T05:00:56;14.70;;;5.20;;
842;SDS011;407;48.884;9.126;2023-06-24T05:03:22;12.00;;;5.20;;
842;SDS011;407;48.884;9.126;2023-06-24T05:05:47;11.82;;;5.25;;
842;SDS011;407;48.884;9.126;2023-06-24T05:08:13;13.25;;;5.68;;
842;SDS011;407;48.884;9.126;2023-06-24T05:10:38;11.60;;;5.10;;
842;SDS011;407;48.884;9.126;2023-06-24T05:13:05;11.48;;;5.40;;
842;SDS011;407;48.884;9.126;2023-06-24T05:15:30;12.00;;;4.90;;
842;SDS011;407;48.884;9.126;2023-06-24T05:17:56;10.52;;;4.85;;
842;SDS011;407;48.884;9.126;2023-06-24T05:20:21;10.40;;;5.00;;
842;SDS011;407;48.884;9.126;2023-06-24T05:22:47;11.80;;;5.00;;
842;SDS011;407;48.884;9.126;2023-06-24T05:25:13;10.68;;;4.85;;
842;SDS011;407;48.884;9.126;2023-06-24T05:27:39;10.95;;;4.10;;
842;SDS011;407;48.884;9.126;2023-06-24T05:30:05;10.30;;;4.40;;
842;SDS011;407;48.884;9.126;2023-06-24T05:32:31;10.05;;;5.05;;
842;SDS011;407;48.884;9.126;2023-06-24T05:34:56;11.38;;;4.80;;
842;SDS011;407;48.884;9.126;2023-06-24T05:37:22;10.17;;;5.10;;
842;SDS011;407;48.884;9.126;2023-06-24T05:39:47;11.37;;;4.53;;
842;SDS011;407;48.884;9.126;2023-06-24T05:42:13;9.80;;;4.90;;
842;SDS011;407;48.884;9.126;2023-06-24T05:44:39;9.67;;;4.83;;
842;SDS011;407;48.884;9.126;2023-06-24T05:47:04;11.70;;;5.30;;
842;SDS011;407;48.884;9.126;2023-06-24T05:49:30;10.32;;;5.00;;
842;SDS011;407;48.884;9.126;2023-06-24T05:51:56;11.50;;;5.10;;
842;SDS011;407;48.884;9.126;2023-06-24T05:54:22;10.80;;;4.67;;
842;SDS011;407;48.884;9.126;2023-06-24T05:56:48;9.50;;;4.70;;
842;SDS011;407;48.884;9.126;2023-06-24T05:59:13;10.10;;;4.53;;
842;SDS011;407;48.884;9.126;2023-06-24T06:01:39;11.07;;;4.40;;
842;SDS011;407;48.884;9.126;2023-06-24T06:04:04;14.25;;;5.32;;
842;SDS011;407;48.884;9.126;2023-06-24T06:06:36;10.57;;;4.57;;
842;SDS011;407;48.884;9.126;2023-06-24T06:09:01;11.05;;;4.72;;
842;SDS011;407;48.884;9.126;2023-06-24T06:11:27;10.35;;;4.85;;
842;SDS011;407;48.884;9.126;2023-06-24T06:13:53;11.07;;;4.73;;
842;SDS011;407;48.884;9.126;2023-06-24T06:16:19;9.30;;;4.20;;
842;SDS011;407;48.884;9.126;2023-06-24T06:18:44;9.33;;;4.00;;
842;SDS011;407;48.884;9.126;2023-06-24T06:21:10;11.60;;;3.80;;
842;SDS011;407;48.884;9.126;2023-06-24T06:23:35;8.32;;;3.90;;
842;SDS011;407;48.884;9.126;2023-06-24T06:26:01;8.07;;;3.40;;
842;SDS011;407;48.884;9.126;2023-06-24T06:28:27;8.80;;;3.53;;
842;SDS011;407;48.884;9.126;2023-06-24T06:30:52;8.70;;;3.63;;
842;SDS011;407;48.884;9.126;2023-06-24T06:33:18;8.77;;;3.70;;
842;SDS011;407;48.884;9.126;2023-06-24T06:35:43;9.57;;;3.80;;
842;SDS011;407;48.884;9.126;2023-06-24T06:38:09;7.57;;;3.40;;
842;SDS011;407;48.884;9.126;2023-06-24T06:40:35;8.15;;;3.90;;
842;SDS011;407;48.884;9.126;2023-06-24T06:43:00;9.53;;;4.10;;
842;SDS011;407;48.884;9.126;2023-06-24T06:45:26;9.77;;;3.70;;
842;SDS011;407;48.884;9.126;2023-06-24T06:47:52;9.03;;;4.23;;
842;SDS011;407;48.884;9.126;2023-06-24T06:50:17;8.40;;;3.83;;
842;SDS011;407;48.884;9.126;2023-06-24T06:52:43;8.40;;;4.00;;
842;SDS011;407;48.884;9.126;2023-06-24T06:55:09;8.67;;;3.80;;
842;SDS011;407;48.884;9.126;2023-06-24T06:57:34;8.13;;;3.60;;
842;SDS011;407;48.884;9.126;2023-06-24T07:00:00;9.57;;;3.67;;
842;SDS011;407;48.884;9.126;2023-06-24T07:02:27;8.55;;;3.50;;
842;SDS011;407;48.884;9.126;2023-06-24T07:04:52;7.83;;;3.10;;
842;SDS011;407;48.884;9.126;2023-06-24T07:07:18;8.57;;;3.90;;
842;SDS011;407;48.884;9.126;2023-06-24T07:09:43;8.30;;;3.50;;
842;SDS011;407;48.884;9.126;2023-06-24T07:12:11;8.48;;;3.42;;
842;SDS011;407;48.884;9.126;2023-06-24T07:14:38;9.98;;;4.05;;
842;SDS011;407;48.884;9.126;2023-06-24T07:17:04;8.27;;;3.40;;
842;SDS011;407;48.884;9.126;2023-06-24T07:19:30;8.18;;;3.58;;
842;SDS011;407;48.884;9.126;2023-06-24T07:21:55;8.50;;;3.35;;
842;SDS011;407;48.884;9.126;2023-06-24T07:24:21;8.10;;;3.50;;
842;SDS011;407;48.884;9.126;2023-06-24T07:26:46;8.85;;;4.20;;
842;SDS011;407;48.884;9.126;2023-06-24T07:29:12;8.70;;;3.90;;
842;SDS011;407;48.884;9.126;2023-06-24T07:31:38;10.20;;;3.47;;
842;SDS011;407;48.884;9.126;2023-06-24T07:34:04;9.60;;;3.90;;
842;SDS011;407;48.884;9.126;2023-06-24T07:36:30;7.75;;;3.17;;
842;SDS011;407;48.884;9.126;2023-06-24T07:38:55;8.80;;;3.65;;
842;SDS011;407;48.884;9.126;2023-06-24T07:41:21;8.30;;;3.90;;
842;SDS011;407;48.884;9.126;2023-06-24T07:43:47;10.40;;;3.50;;
842;SDS011;407;48.884;9.126;2023-06-24T07:46:12;8.50;;;3.40;;
842;SDS011;407;48.884;9.126;2023-06-24T07:48:38;7.90;;;3.30;;
842;SDS011;407;48.884;9.126;2023-06-24T07:51:03;10.33;;;3.53;;
842;SDS011;407;48.884;9.126;2023-06-24T07:53:29;10.75;;;3.55;;
842;SDS011;407;48.884;9.126;2023-06-24T07:55:54;7.97;;;3.43;;
842;SDS011;407;48.884;9.126;2023-06-24T07:58:20;7.50;;;3.30;;
842;SDS011;407;48.884;9.126;2023-06-24T08:00:45;7.77;;;3.40;;
842;SDS011;407;48.884;9.126;2023-06-24T08:03:12;9.03;;;4.30;;
842;SDS011;407;48.884;9.126;2023-06-24T08:05:38;7.35;;;3.17;;
842;SDS011;407;48.884;9.126;2023-06-24T08:08:07;8.30;;;3.50;;
842;SDS011;407;48.884;9.126;2023-06-24T08:10:33;7.75;;;3.38;;
842;SDS011;407;48.884;9.126;2023-06-24T08:12:59;8.38;;;3.60;;
842;SDS011;407;48.884;9.126;2023-06-24T08:15:24;7.53;;;3.13;;
842;SDS011;407;48.884;9.126;2023-06-24T08:17:50;7.53;;;3.20;;
842;SDS011;407;48.884;9.126;2023-06-24T08:20:20;7.93;;;3.30;;
842;SDS011;407;48.884;9.126;2023-06-24T08:22:46;7.80;;;3.40;;
842;SDS011;407;48.884;9.126;2023-06-24T08:25:12;8.70;;;3.20;;
842;SDS011;407;48.884;9.126;2023-06-24T08:27:37;6.73;;;2.60;;
842;SDS011;407;48.884;9.126;2023-06-24T08:30:04;7.57;;;3.15;;
842;SDS011;407;48.884;9.126;2023-06-24T08:32:30;7.78;;;3.50;;
842;SDS011;407;48.884;9.126;2023-06-24T08:34:56;7.20;;;2.90;;
842;SDS011;407;48.884;9.126;2023-06-24T08:37:21;7.63;;;2.80;;
842;SDS011;407;48.884;9.126;2023-06-24T08:39:47;8.38;;;2.90;;
842;SDS011;407;48.884;9.126;2023-06-24T08:42:13;6.90;;;2.60;;
842;SDS011;407;48.884;9.126;2023-06-24T08:44:38;7.43;;;3.00;;
842;SDS011;407;48.884;9.126;2023-06-24T08:47:04;9.47;;;2.97;;
842;SDS011;407;48.884;9.126;2023-06-24T08:49:30;7.40;;;2.90;;
842;SDS011;407;48.884;9.126;2023-06-24T08:54:25;7.20;;;3.00;;
842;SDS011;407;48.884;9.126;2023-06-24T08:56:52;7.50;;;2.65;;
842;SDS011;407;48.884;9.126;2023-06-24T08:59:18;8.10;;;3.20;;
842;SDS011;407;48.884;9.126;2023-06-24T09:01:46;7.05;;;2.65;;
842;SDS011;407;48.884;9.126;2023-06-24T09:04:12;7.45;;;3.17;;
842;SDS011;407;48.884;9.126;2023-06-24T09:06:37;7.28;;;2.90;;
842;SDS011;407;48.884;9.126;2023-06-24T09:09:03;8.00;;;3.10;;
842;SDS011;407;48.884;9.126;2023-06-24T09:11:29;7.53;;;2.90;;
842;SDS011;407;48.884;9.126;2023-06-24T09:13:57;8.07;;;2.80;;
842;SDS011;407;48.884;9.126;2023-06-24T09:16:23;8.70;;;3.50;;
842;SDS011;407;48.884;9.126;2023-06-24T09:18:50;7.57;;;2.80;;
842;SDS011;407;48.884;9.126;2023-06-24T09:21:25;8.90;;;3.40;;
842;SDS011;407;48.884;9.126;2023-06-24T09:23:55;7.03;;;2.77;;
842;SDS011;407;48.884;9.126;2023-06-24T09:26:24;7.15;;;2.70;;
842;SDS011;407;48.884;9.126;2023-06-24T09:28:51;8.00;;;3.27;;
842;SDS011;407;48.884;9.126;2023-06-24T09:31:17;7.30;;;3.10;;
842;SDS011;407;48.884;9.126;2023-06-24T09:33:43;7.55;;;3.08;;
842;SDS011;407;48.884;9.126;2023-06-24T09:36:12;6.50;;;2.58;;
842;SDS011;407;48.884;9.126;2023-06-24T09:38:41;7.22;;;3.03;;
842;SDS011;407;48.884;9.126;2023-06-24T09:41:09;7.38;;;2.78;;
842;SDS011;407;48.884;9.126;2023-06-24T09:43:35;7.50;;;2.80;;
842;SDS011;407;48.884;9.126;2023-06-24T09:46:02;7.60;;;2.80;;
842;SDS011;407;48.884;9.126;2023-06-24T09:48:28;7.03;;;2.60;;
842;SDS011;407;48.884;9.126;2023-06-24T09:50:54;6.43;;;2.57;;
842;SDS011;407;48.884;9.126;2023-06-24T09:53:32;7.67;;;2.50;;
842;SDS011;407;48.884;9.126;2023-06-24T09:56:05;11.98;;;3.28;;
842;SDS011;407;48.884;9.126;2023-06-24T09:58:35;6.53;;;2.60;;
842;SDS011;407;48.884;9.126;2023-06-24T10:01:02;7.57;;;2.63;;
842;SDS011;407;48.884;9.126;2023-06-24T10:03:29;6.72;;;2.28;;
842;SDS011;407;48.884;9.126;2023-06-24T10:06:01;7.20;;;2.80;;
842;SDS011;407;48.884;9.126;2023-06-24T10:08:30;8.70;;;2.50;;
842;SDS011;407;48.884;9.126;2023-06-24T10:10:56;6.95;;;2.50;;
842;SDS011;407;48.884;9.126;2023-06-24T10:13:22;6.75;;;2.35;;
842;SDS011;407;48.884;9.126;2023-06-24T10:15:48;6.85;;;2.25;;
842;SDS011;407;48.884;9.126;2023-06-24T10:21:01;6.80;;;2.70;;
842;SDS011;407;48.884;9.126;2023-06-24T10:23:39;7.78;;;3.00;;
842;SDS011;407;48.884;9.126;2023-06-24T10:26:27;7.30;;;2.67;;
842;SDS011;407;48.884;9.126;2023-06-24T10:37:05;7.38;;;2.60;;
842;SDS011;407;48.884;9.126;2023-06-24T10:42:28;6.30;;;2.20;;
842;SDS011;407;48.884;9.126;2023-06-24T10:44:54;6.88;;;2.40;;
842;SDS011;407;48.884;9.126;2023-06-24T10:47:25;7.55;;;2.60;;
842;SDS011;407;48.884;9.126;2023-06-24T10:49:52;7.72;;;2.30;;
842;SDS011;407;48.884;9.126;2023-06-24T10:52:21;8.03;;;2.90;;
842;SDS011;407;48.884;9.126;2023-06-24T10:54:48;7.65;;;2.70;;
842;SDS011;407;48.884;9.126;2023-06-24T10:57:15;7.07;;;2.40;;
842;SDS011;407;48.884;9.126;2023-06-24T10:59:48;6.90;;;2.20;;
842;SDS011;407;48.884;9.126;2023-06-24T11:02:15;7.20;;;2.38;;
842;SDS011;407;48.884;9.126;2023-06-24T11:05:00;7.28;;;2.40;;
842;SDS011;407;48.884;9.126;2023-06-24T11:07:30;7.28;;;2.50;;
842;SDS011;407;48.884;9.126;2023-06-24T11:10:01;7.32;;;2.80;;
842;SDS011;407;48.884;9.126;2023-06-24T11:12:33;6.40;;;2.17;;
842;SDS011;407;48.884;9.126;2023-06-24T11:15:03;6.80;;;2.15;;
842;SDS011;407;48.884;9.126;2023-06-24T11:17:30;7.50;;;2.40;;
842;SDS011;407;48.884;9.126;2023-06-24T11:19:56;7.70;;;2.70;;
842;SDS011;407;48.884;9.126;2023-06-24T11:22:23;7.00;;;2.00;;
842;SDS011;407;48.884;9.126;2023-06-24T11:24:49;7.28;;;2.30;;
842;SDS011;407;48.884;9.126;2023-06-24T11:27:15;7.53;;;2.20;;
842;SDS011;407;48.884;9.126;2023-06-24T11:29:41;6.60;;;2.50;;
842;SDS011;407;48.884;9.126;2023-06-24T11:32:06;7.60;;;2.50;;
842;SDS011;407;48.884;9.126;2023-06-24T11:34:33;7.00;;;2.70;;
842;SDS011;407;48.884;9.126;2023-06-24T11:37:08;6.60;;;2.30;;
842;SDS011;407;48.884;9.126;2023-06-24T11:39:37;6.80;;;2.60;;
842;SDS011;407;48.884;9.126;2023-06-24T11:42:05;6.60;;;2.30;;
842;SDS011;407;48.884;9.126;2023-06-24T11:44:32;6.07;;;1.60;;
842;SDS011;407;48.884;9.126;2023-06-24T11:47:04;7.80;;;2.80;;
842;SDS011;407;48.884;9.126;2023-06-24T11:49:30;6.90;;;2.10;;
842;SDS011;407;48.884;9.126;2023-06-24T11:51:56;6.82;;;1.90;;
842;SDS011;407;48.884;9.126;2023-06-24T11:54:22;9.30;;;2.50;;
842;SDS011;407;48.884;9.126;2023-06-24T11:56:52;6.18;;;2.15;;
842;SDS011;407;48.884;9.126;2023-06-24T11:59:19;6.45;;;1.90;;
842;SDS011;407;48.884;9.126;2023-06-24T12:01:54;8.40;;;2.55;;
842;SDS011;407;48.884;9.126;2023-06-24T12:04:21;6.65;;;1.85;;
842;SDS011;407;48.884;9.126;2023-06-24T12:06:53;6.45;;;2.10;;
842;SDS011;407;48.884;9.126;2023-06-24T12:09:19;7.37;;;2.50;;
842;SDS011;407;48.884;9.126;2023-06-24T12:11:44;6.93;;;2.23;;
842;SDS011;407;48.884;9.126;2023-06-24T12:14:10;7.03;;;2.00;;
842;SDS011;407;48.884;9.126;2023-06-24T12:16:36;6.82;;;2.10;;
842;SDS011;407;48.884;9.126;2023-06-24T12:19:02;6.30;;;2.20;;
842;SDS011;407;48.884;9.126;2023-06-24T12:21:27;7.25;;;2.47;;
842;SDS011;407;48.884;9.126;2023-06-24T12:23:54;7.80;;;2.35;;
842;SDS011;407;48.884;9.126;2023-06-24T12:26:20;7.10;;;2.10;;
842;SDS011;407;48.884;9.126;2023-06-24T12:28:45;8.10;;;2.35;;
842;SDS011;407;48.884;9.126;2023-06-24T12:31:11;6.53;;;2.13;;
842;SDS011;407;48.884;9.126;2023-06-24T12:33:37;7.68;;;2.55;;
842;SDS011;407;48.884;9.126;2023-06-24T12:36:02;6.50;;;2.20;;
842;SDS011;407;48.884;9.126;2023-06-24T12:38:28;7.20;;;2.40;;
842;SDS011;407;48.884;9.126;2023-06-24T12:40:54;6.80;;;2.40;;
842;SDS011;407;48.884;9.126;2023-06-24T12:43:19;6.80;;;2.40;;
842;SDS011;407;48.884;9.126;2023-06-24T12:45:45;6.80;;;2.40;;
842;SDS011;407;48.884;9.126;2023-06-24T12:48:11;6.28;;;2.28;;
842;SDS011;407;48.884;9.126;2023-06-24T12:50:37;7.50;;;2.73;;
842;SDS011;407;48.884;9.126;2023-06-24T12:53:03;6.77;;;2.20;;
842;SDS011;407;48.884;9.126;2023-06-24T12:55:28;6.70;;;2.27;;
842;SDS011;407;48.884;9.126;2023-06-24T12:57:55;8.27;;;2.50;;
842;SDS011;407;48.884;9.126;2023-06-24T13:00:21;7.63;;;2.70;;
842;SDS011;407;48.884;9.126;2023-06-24T13:02:47;8.15;;;2.60;;
842;SDS011;407;48.884;9.126;2023-06-24T13:05:12;7.40;;;2.80;;
842;SDS011;407;48.884;9.126;2023-06-24T13:07:38;6.78;;;1.98;;
842;SDS011;407;48.884;9.126;2023-06-24T13:10:04;7.40;;;2.60;;
842;SDS011;407;48.884;9.126;2023-06-24T13:12:31;6.95;;;2.40;;
842;SDS011;407;48.884;9.126;2023-06-24T13:14:57;7.20;;;2.55;;
842;SDS011;407;48.884;9.126;2023-06-24T13:17:23;7.90;;;2.50;;
842;SDS011;407;48.884;9.126;2023-06-24T13:19:49;7.82;;;2.70;;
842;SDS011;407;48.884;9.126;2023-06-24T13:22:15;7.32;;;2.30;;
842;SDS011;407;48.884;9.126;2023-06-24T13:24:40;6.43;;;2.20;;
842;SDS011;407;48.884;9.126;2023-06-24T13:27:06;6.77;;;2.30;;
842;SDS011;407;48.884;9.126;2023-06-24T13:29:32;7.15;;;2.40;;
842;SDS011;407;48.884;9.126;2023-06-24T13:31:57;6.80;;;2.50;;
842;SDS011;407;48.884;9.126;2023-06-24T13:34:23;7.20;;;2.40;;
842;SDS011;407;48.884;9.126;2023-06-24T13:36:48;7.27;;;2.20;;
842;SDS011;407;48.884;9.126;2023-06-24T13:39:14;6.63;;;2.20;;
842;SDS011;407;48.884;9.126;2023-06-24T13:41:42;6.82;;;2.13;;
842;SDS011;407;48.884;9.126;2023-06-24T13:44:08;7.38;;;2.00;;
842;SDS011;407;48.884;9.126;2023-06-24T13:46:34;7.30;;;3.20;;
842;SDS011;407;48.884;9.126;2023-06-24T13:49:00;8.23;;;2.30;;
842;SDS011;407;48.884;9.126;2023-06-24T13:51:26;7.40;;;2.50;;
842;SDS011;407;48.884;9.126;2023-06-24T13:53:52;8.60;;;2.30;;
842;SDS011;407;48.884;9.126;2023-06-24T13:56:19;7.38;;;2.67;;
842;SDS011;407;48.884;9.126;2023-06-24T13:58:46;7.30;;;2.80;;
842;SDS011;407;48.884;9.126;2023-06-24T14:01:11;9.77;;;5.20;;
842;SDS011;407;48.884;9.126;2023-06-24T14:03:37;6.57;;;2.20;;
842;SDS011;407;48.884;9.126;2023-06-24T14:06:03;7.67;;;2.60;;
842;SDS011;407;48.884;9.126;2023-06-24T14:08:29;6.70;;;2.50;;
842;SDS011;407;48.884;9.126;2023-06-24T14:10:57;6.75;;;2.42;;
842;SDS011;407;48.884;9.126;2023-06-24T14:13:23;6.40;;;2.10;;
842;SDS011;407;48.884;9.126;2023-06-24T14:15:50;8.02;;;2.60;;
842;SDS011;407;48.884;9.126;2023-06-24T14:18:15;8.20;;;2.70;;
842;SDS011;407;48.884;9.126;2023-06-24T14:20:41;6.90;;;2.10;;
842;SDS011;407;48.884;9.126;2023-06-24T14:23:07;7.15;;;2.58;;
842;SDS011;407;48.884;9.126;2023-06-24T14:25:32;7.47;;;2.70;;
842;SDS011;407;48.884;9.126;2023-06-24T14:27:58;7.40;;;2.30;;
842;SDS011;407;48.884;9.126;2023-06-24T14:30:23;6.83;;;2.67;;
842;SDS011;407;48.884;9.126;2023-06-24T14:32:49;6.70;;;2.37;;
842;SDS011;407;48.884;9.126;2023-06-24T14:35:14;8.05;;;3.00;;
842;SDS011;407;48.884;9.126;2023-06-24T14:37:40;7.13;;;2.50;;
842;SDS011;407;48.884;9.126;2023-06-24T14:40:07;6.88;;;2.13;;
842;SDS011;407;48.884;9.126;2023-06-24T14:42:33;7.80;;;2.50;;
842;SDS011;407;48.884;9.126;2023-06-24T14:44:58;7.10;;;2.50;;
842;SDS011;407;48.884;9.126;2023-06-24T14:47:24;6.70;;;2.50;;
842;SDS011;407;48.884;9.126;2023-06-24T14:49:49;6.70;;;2.30;;
842;SDS011;407;48.884;9.126;2023-06-24T14:52:15;6.40;;;2.07;;
842;SDS011;407;48.884;9.126;2023-06-24T14:54:41;7.20;;;2.50;;
842;SDS011;407;48.884;9.126;2023-06-24T14:57:06;7.30;;;2.10;;
842;SDS011;407;48.884;9.126;2023-06-24T14:59:32;6.95;;;2.50;;
842;SDS011;407;48.884;9.126;2023-06-24T15:01:57;6.97;;;2.20;;
842;SDS011;407;48.884;9.126;2023-06-24T15:04:23;6.37;;;2.10;;
842;SDS011;407;48.884;9.126;2023-06-24T15:06:48;7.30;;;2.40;;
842;SDS011;407;48.884;9.126;2023-06-24T15:09:14;7.00;;;2.40;;
842;SDS011;407;48.884;9.126;2023-06-24T15:11:39;7.40;;;2.27;;
842;SDS011;407;48.884;9.126;2023-06-24T15:14:05;7.57;;;2.27;;
842;SDS011;407;48.884;9.126;2023-06-24T15:16:30;7.90;;;2.60;;
842;SDS011;407;48.884;9.126;2023-06-24T15:18:56;6.93;;;2.60;;
842;SDS011;407;48.884;9.126;2023-06-24T15:21:21;7.10;;;2.50;;
842;SDS011;407;48.884;9.126;2023-06-24T15:23:47;6.78;;;2.40;;
842;SDS011;407;48.884;9.126;2023-06-24T15:26:12;7.00;;;2.10;;
842;SDS011;407;48.884;9.126;2023-06-24T15:28:38;8.07;;;2.90;;
842;SDS011;407;48.884;9.126;2023-06-24T15:31:04;6.97;;;2.40;;
842;SDS011;407;48.884;9.126;2023-06-24T15:33:29;7.10;;;2.10;;
842;SDS011;407;48.884;9.126;2023-06-24T15:35:55;6.80;;;2.40;;
842;SDS011;407;48.884;9.126;2023-06-24T15:38:22;7.63;;;2.80;;
842;SDS011;407;48.884;9.126;2023-06-24T15:40:48;8.13;;;2.63;;
842;SDS011;407;48.884;9.126;2023-06-24T15:43:13;7.10;;;2.40;;
842;SDS011;407;48.884;9.126;2023-06-24T15:45:39;7.00;;;2.70;;
842;SDS011;407;48.884;9.126;2023-06-24T15:48:05;7.15;;;2.45;;
842;SDS011;407;48.884;9.126;2023-06-24T15:50:31;6.90;;;2.10;;
842;SDS011;407;48.884;9.126;2023-06-24T15:52:56;9.10;;;2.50;;
842;SDS011;407;48.884;9.126;2023-06-24T15:55:22;6.80;;;2.30;;
842;SDS011;407;48.884;9.126;2023-06-24T15:57:48;9.07;;;2.97;;
842;SDS011;407;48.884;9.126;2023-06-24T16:00:13;7.10;;;2.90;;
842;SDS011;407;48.884;9.126;2023-06-24T16:02:39;7.03;;;2.58;;
842;SDS011;407;48.884;9.126;2023-06-24T16:05:05;7.63;;;2.50;;